Fontana, Kansas
Current Conditions -  °F | °C
As of 10:53 AM on Thursday 18 Dec 2014 (Local Time) from KIXD Reporting Station
Haze Haze  
Wind Chill: 25°   Ceiling: 800
Heat Index: 31°   Visibility: 2mi
Dew Point: 28°   Wind: 6mph
Humidity: 89%   Direction: 90°E
Pressure: 30.23"   Gusts: NA
Location:  38.43°N, 94.84°W
Report Text: KIXD 181653Z 09005KT 2SM BR OVC008 M01/M02 A3023 RMK AO2 SNE1556 CIG 006V011 SLP248 P0000 T10061022
Loading
Personal Weather Stations






























Interactive Weather Map New forecast layout! Learn more

10-Day Weather Forecast

Advertisements
Track Severe Weather on mobile